createdAt,value
2023-04-25T00:00:11.025Z,30.2140
2023-04-25T00:00:22.204Z,30.2420
2023-04-25T00:00:33.235Z,30.2310
2023-04-25T00:00:44.326Z,30.2360
2023-04-25T00:00:55.470Z,30.2310
2023-04-25T00:01:06.687Z,30.2250
2023-04-25T00:01:17.930Z,30.2420
2023-04-25T00:01:29.074Z,30.2470
2023-04-25T00:01:40.324Z,30.2470
2023-04-25T00:01:51.489Z,30.2470
2023-04-25T00:02:02.694Z,30.2420
2023-04-25T00:02:13.966Z,30.2360
2023-04-25T00:02:25.149Z,30.2200
2023-04-25T00:02:36.351Z,30.2250
2023-04-25T00:02:47.757Z,30.2200
2023-04-25T00:02:59.128Z,30.2360
2023-04-25T00:03:10.507Z,30.2250
2023-04-25T00:03:22.023Z,30.2470
2023-04-25T00:03:33.848Z,30.2520
2023-04-25T00:03:45.315Z,30.2180
2023-04-25T00:03:57.017Z,30.2120
2023-04-25T00:04:08.769Z,30.2460
2023-04-25T00:04:20.162Z,30.2180
2023-04-25T00:04:31.893Z,30.2010
2023-04-25T00:04:43.585Z,30.2120
2023-04-25T00:04:55.362Z,30.2120
2023-04-25T00:05:06.844Z,30.2060
2023-04-25T00:05:18.063Z,30.1740
2023-04-25T00:05:29.219Z,30.1810
2023-04-25T00:05:40.404Z,30.1750
2023-04-25T00:05:51.614Z,30.1640
2023-04-25T00:06:02.728Z,30.1530
2023-04-25T00:06:13.760Z,30.1260
2023-04-25T00:06:24.886Z,30.1210
2023-04-25T00:06:35.954Z,30.1370
2023-04-25T00:06:46.982Z,30.1320
2023-04-25T00:06:58.039Z,30.1530
2023-04-25T00:07:09.234Z,30.1480
2023-04-25T00:07:20.305Z,30.1370
2023-04-25T00:07:31.408Z,30.1530
2023-04-25T00:07:42.524Z,30.1530
2023-04-25T00:07:53.560Z,30.1640
2023-04-25T00:08:04.606Z,30.1700
2023-04-25T00:08:15.794Z,30.1590
2023-04-25T00:08:26.997Z,30.1480
2023-04-25T00:08:38.050Z,30.1530
2023-04-25T00:08:49.082Z,30.1590
2023-04-25T00:09:00.131Z,30.1480
2023-04-25T00:09:11.269Z,30.1530
2023-04-25T00:09:22.359Z,30.1480
2023-04-25T00:09:33.575Z,30.1530
2023-04-25T00:09:44.603Z,30.1640
2023-04-25T00:09:55.642Z,30.1480
2023-04-25T00:10:06.690Z,30.1430
2023-04-25T00:10:17.743Z,30.1530
2023-04-25T00:10:28.926Z,30.1430
2023-04-25T00:10:39.991Z,30.1480
2023-04-25T00:10:51.072Z,30.1480
2023-04-25T00:11:02.209Z,30.1700
2023-04-25T00:11:13.248Z,30.1750
2023-04-25T00:11:24.397Z,30.1750
2023-04-25T00:11:35.510Z,30.1590
2023-04-25T00:11:46.555Z,30.1640
2023-04-25T00:11:57.620Z,30.1640
2023-04-25T00:12:08.775Z,30.1590
2023-04-25T00:12:19.809Z,30.1530
2023-04-25T00:12:30.841Z,30.1480
2023-04-25T00:12:41.896Z,30.1370
2023-04-25T00:12:52.960Z,30.1370
2023-04-25T00:13:04.157Z,30.1530
2023-04-25T00:13:15.328Z,30.1370
2023-04-25T00:13:26.462Z,30.1460
2023-04-25T00:13:37.524Z,30.1460
2023-04-25T00:13:48.804Z,30.1410
2023-04-25T00:14:00.140Z,30.1520
2023-04-25T00:14:11.208Z,30.1240
2023-04-25T00:14:22.323Z,30.1410
2023-04-25T00:14:33.399Z,30.1410
2023-04-25T00:14:44.599Z,30.1360
2023-04-25T00:14:55.791Z,30.1290
2023-04-25T00:15:07.007Z,30.1360
2023-04-25T00:15:18.057Z,30.1240
2023-04-25T00:15:29.082Z,30.1290
2023-04-25T00:15:40.298Z,30.1240
2023-04-25T00:15:51.537Z,30.1360
2023-04-25T00:16:02.724Z,30.1360
2023-04-25T00:16:13.904Z,30.1360
2023-04-25T00:16:25.158Z,30.1240
2023-04-25T00:16:36.286Z,30.1460
2023-04-25T00:16:47.495Z,30.1520
2023-04-25T00:16:58.686Z,30.1570
2023-04-25T00:17:09.889Z,30.1290
2023-04-25T00:17:21.105Z,30.1520
2023-04-25T00:17:32.395Z,30.1460
2023-04-25T00:17:43.574Z,30.1360
2023-04-25T00:17:54.685Z,30.1360
2023-04-25T00:18:05.891Z,30.1360
2023-04-25T00:18:17.106Z,30.1360
2023-04-25T00:18:28.296Z,30.1410
2023-04-25T00:18:39.342Z,30.1460
2023-04-25T00:18:50.363Z,30.1410
2023-04-25T00:19:01.560Z,30.1290
2023-04-25T00:19:12.599Z,30.1520
2023-04-25T00:19:23.649Z,30.1180
2023-04-25T00:19:34.685Z,30.1290
2023-04-25T00:19:45.717Z,30.1240
2023-04-25T00:19:56.922Z,30.1240
2023-04-25T00:20:08.117Z,30.1360
2023-04-25T00:20:19.320Z,30.1290
2023-04-25T00:20:30.511Z,30.1240
2023-04-25T00:20:41.726Z,30.1130
2023-04-25T00:20:52.769Z,30.1520
2023-04-25T00:21:03.804Z,30.1410
2023-04-25T00:21:14.858Z,30.1360
2023-04-25T00:21:25.913Z,30.1240
2023-04-25T00:21:37.080Z,30.0960
2023-04-25T00:21:48.294Z,30.0910
2023-04-25T00:21:59.478Z,30.0960
2023-04-25T00:22:10.567Z,30.1130
2023-04-25T00:22:21.653Z,30.1180
2023-04-25T00:22:32.792Z,30.1290
2023-04-25T00:22:43.966Z,30.1240
2023-04-25T00:22:55.184Z,30.1240
2023-04-25T00:23:06.233Z,30.1180
2023-04-25T00:23:17.245Z,30.1290
2023-04-25T00:23:28.439Z,30.1360
2023-04-25T00:23:39.648Z,30.1240
2023-04-25T00:23:51.134Z,30.1240
2023-04-25T00:24:02.409Z,30.1410
2023-04-25T00:24:13.558Z,30.1410
2023-04-25T00:24:24.780Z,30.1410
2023-04-25T00:24:35.821Z,30.1410
2023-04-25T00:24:46.841Z,30.1240
2023-04-25T00:24:58.040Z,30.1360
2023-04-25T00:25:09.259Z,30.1410
2023-04-25T00:25:20.436Z,30.1520
2023-04-25T00:25:31.640Z,30.1520
2023-04-25T00:25:42.850Z,30.1570
2023-04-25T00:25:53.875Z,30.1360
2023-04-25T00:26:04.921Z,30.1240
2023-04-25T00:26:16.127Z,30.1410
2023-04-25T00:26:27.350Z,30.1460
2023-04-25T00:26:38.584Z,30.1460
2023-04-25T00:26:49.619Z,30.1680
2023-04-25T00:27:00.698Z,30.1410
2023-04-25T00:27:11.742Z,30.1360
2023-04-25T00:27:22.782Z,30.1570
2023-04-25T00:27:33.894Z,30.1360
2023-04-25T00:27:44.950Z,30.1240
2023-04-25T00:27:56.020Z,30.1240
2023-04-25T00:28:07.068Z,30.1240
2023-04-25T00:28:18.076Z,30.1240
2023-04-25T00:28:29.234Z,30.1240
2023-04-25T00:28:40.434Z,30.1360
2023-04-25T00:28:51.472Z,30.1440
2023-04-25T00:29:02.522Z,30.1440
2023-04-25T00:29:13.740Z,30.1290
2023-04-25T00:29:24.796Z,30.1410
2023-04-25T00:29:35.812Z,30.1360
2023-04-25T00:29:47.015Z,30.1410
2023-04-25T00:29:58.206Z,30.1410
2023-04-25T00:30:09.400Z,30.1290
2023-04-25T00:30:20.621Z,30.1460
2023-04-25T00:30:31.682Z,30.1410
2023-04-25T00:30:42.789Z,30.1180
2023-04-25T00:30:53.888Z,30.1360
2023-04-25T00:31:05.120Z,30.1410
2023-04-25T00:31:16.305Z,30.1240
2023-04-25T00:31:27.534Z,30.1460
2023-04-25T00:31:38.695Z,30.1360
2023-04-25T00:31:49.891Z,30.1290
2023-04-25T00:32:01.096Z,30.1180
2023-04-25T00:32:12.284Z,30.1410
2023-04-25T00:32:23.292Z,30.1460
2023-04-25T00:32:34.430Z,30.1410
2023-04-25T00:32:45.595Z,30.1360
2023-04-25T00:32:56.783Z,30.1460
2023-04-25T00:33:08.076Z,30.1360
2023-04-25T00:33:19.177Z,30.1460
2023-04-25T00:33:30.363Z,30.1410
2023-04-25T00:33:41.550Z,30.1460
2023-04-25T00:33:53.006Z,30.1460
2023-04-25T00:34:04.286Z,30.1460
2023-04-25T00:34:15.485Z,30.1180
2023-04-25T00:34:26.708Z,30.1130
2023-04-25T00:34:37.722Z,30.1520
2023-04-25T00:34:48.753Z,30.1520
2023-04-25T00:34:59.966Z,30.1680
2023-04-25T00:35:11.164Z,30.1630
2023-04-25T00:35:22.379Z,30.1520
2023-04-25T00:35:33.551Z,30.1680
2023-04-25T00:35:44.668Z,30.1410
2023-04-25T00:35:55.727Z,30.1520
2023-04-25T00:36:06.855Z,30.1460
2023-04-25T00:36:18.042Z,30.1570
2023-04-25T00:36:29.098Z,30.1570
2023-04-25T00:36:40.201Z,30.1460
2023-04-25T00:36:51.316Z,30.1460
2023-04-25T00:37:02.521Z,30.1290
2023-04-25T00:37:13.548Z,30.1460
2023-04-25T00:37:24.598Z,30.1520
2023-04-25T00:37:35.845Z,30.1460
2023-04-25T00:37:47.005Z,30.1570
2023-04-25T00:37:58.211Z,30.1410
2023-04-25T00:38:09.321Z,30.1570
2023-04-25T00:38:20.403Z,30.1520
2023-04-25T00:38:31.445Z,30.1460
2023-04-25T00:38:42.676Z,30.1360
2023-04-25T00:38:53.875Z,30.1520
2023-04-25T00:39:05.073Z,30.1460
2023-04-25T00:39:16.163Z,30.1570
2023-04-25T00:39:27.224Z,30.1460
2023-04-25T00:39:38.372Z,30.1360
2023-04-25T00:39:49.567Z,30.1290
2023-04-25T00:40:00.592Z,30.1360
2023-04-25T00:40:11.641Z,30.1240
2023-04-25T00:40:22.703Z,30.1180
2023-04-25T00:40:33.718Z,30.1290
2023-04-25T00:40:44.926Z,30.1180
2023-04-25T00:40:56.153Z,30.1290
2023-04-25T00:41:07.330Z,30.1360
2023-04-25T00:41:18.533Z,30.1290
2023-04-25T00:41:29.583Z,30.1110
2023-04-25T00:41:40.662Z,30.1020
2023-04-25T00:41:51.755Z,30.1070
2023-04-25T00:42:02.800Z,30.1070
2023-04-25T00:42:13.864Z,30.1020
2023-04-25T00:42:25.116Z,30.1000
2023-04-25T00:42:36.151Z,30.1110
2023-04-25T00:42:47.211Z,30.1240
2023-04-25T00:42:58.367Z,30.1130
2023-04-25T00:43:09.494Z,30.1070
2023-04-25T00:43:20.555Z,30.1020
2023-04-25T00:43:31.644Z,30.1020
2023-04-25T00:43:42.726Z,30.1240
2023-04-25T00:43:53.906Z,30.1180
2023-04-25T00:44:04.982Z,30.1130
2023-04-25T00:44:16.056Z,30.1240
2023-04-25T00:44:27.316Z,30.1130
2023-04-25T00:44:38.559Z,30.1180
2023-04-25T00:44:49.558Z,30.1070
2023-04-25T00:45:00.600Z,30.1020
2023-04-25T00:45:11.806Z,30.0960
2023-04-25T00:45:22.868Z,30.1020
2023-04-25T00:45:33.953Z,30.1070
2023-04-25T00:45:45.070Z,30.1130
2023-04-25T00:45:56.153Z,30.0960
2023-04-25T00:46:07.211Z,30.0750
2023-04-25T00:46:18.391Z,30.0800
2023-04-25T00:46:29.662Z,30.0910
2023-04-25T00:46:40.840Z,30.1180
2023-04-25T00:46:52.031Z,30.1060
2023-04-25T00:47:03.236Z,30.1130
2023-04-25T00:47:14.402Z,30.1130
2023-04-25T00:47:25.610Z,30.1240
2023-04-25T00:47:36.774Z,30.1070
2023-04-25T00:47:48.008Z,30.1180
2023-04-25T00:47:59.181Z,30.1180
2023-04-25T00:48:10.342Z,30.1070
2023-04-25T00:48:21.566Z,30.1170
2023-04-25T00:48:32.640Z,30.1380
2023-04-25T00:48:43.697Z,30.1360
2023-04-25T00:48:54.829Z,30.1290
2023-04-25T00:49:05.880Z,30.1290
2023-04-25T00:49:16.927Z,30.1240
2023-04-25T00:49:28.117Z,30.1130
2023-04-25T00:49:39.317Z,30.1180
2023-04-25T00:49:50.534Z,30.1180
2023-04-25T00:50:01.746Z,30.1070
2023-04-25T00:50:12.774Z,30.1130
2023-04-25T00:50:23.801Z,30.1070
2023-04-25T00:50:35.005Z,30.1070
2023-04-25T00:50:46.192Z,30.0960
2023-04-25T00:50:57.402Z,30.1020
2023-04-25T00:51:08.630Z,30.0910
2023-04-25T00:51:19.661Z,30.0910
2023-04-25T00:51:30.725Z,30.1020
2023-04-25T00:51:41.911Z,30.0750
2023-04-25T00:51:52.956Z,30.0750
2023-04-25T00:52:04.066Z,30.0640
2023-04-25T00:52:15.166Z,30.0460
2023-04-25T00:52:26.188Z,30.0460
2023-04-25T00:52:37.253Z,30.0460
2023-04-25T00:52:48.450Z,30.0460
2023-04-25T00:52:59.462Z,30.0530
2023-04-25T00:53:10.519Z,30.0580
2023-04-25T00:53:21.718Z,30.0350
2023-04-25T00:53:32.796Z,30.0410
2023-04-25T00:53:43.872Z,30.0410
2023-04-25T00:53:55.020Z,30.0300
2023-04-25T00:54:06.049Z,30.0460
2023-04-25T00:54:17.085Z,30.0350
2023-04-25T00:54:28.279Z,30.0300
2023-04-25T00:54:39.319Z,30.0640
2023-04-25T00:54:50.384Z,30.0450
2023-04-25T00:55:01.570Z,30.0410
2023-04-25T00:55:12.766Z,30.0350
2023-04-25T00:55:23.795Z,30.0530
2023-04-25T00:55:34.861Z,30.0640
2023-04-25T00:55:45.917Z,30.0410
2023-04-25T00:55:56.978Z,30.0410
2023-04-25T00:56:08.133Z,30.0300
2023-04-25T00:56:19.318Z,30.0300
2023-04-25T00:56:30.529Z,30.0190
2023-04-25T00:56:41.814Z,30.0140
2023-04-25T00:56:52.868Z,30.0300
2023-04-25T00:57:03.934Z,30.0300
2023-04-25T00:57:14.997Z,30.0250
2023-04-25T00:57:26.066Z,30.0250
2023-04-25T00:57:37.070Z,30.0190
2023-04-25T00:57:48.292Z,30.0140
2023-04-25T00:57:59.317Z,30.0140
2023-04-25T00:58:10.398Z,30.0080
2023-04-25T00:58:21.591Z,29.9870
2023-04-25T00:58:32.766Z,29.9810
2023-04-25T00:58:43.851Z,29.9920
2023-04-25T00:58:54.933Z,29.9920
2023-04-25T00:59:06.063Z,30.0080
2023-04-25T00:59:17.238Z,30.0030
2023-04-25T00:59:28.446Z,30.0030
2023-04-25T00:59:39.648Z,30.0140
2023-04-25T00:59:50.862Z,30.0140
2023-04-25T01:00:02.027Z,30.0190
2023-04-25T01:00:13.248Z,30.0030
2023-04-25T01:00:24.450Z,29.9980
2023-04-25T01:00:35.717Z,29.9760
2023-04-25T01:00:46.865Z,29.9700
2023-04-25T01:00:58.072Z,29.9760
2023-04-25T01:01:09.182Z,29.9510
2023-04-25T01:01:20.582Z,29.9510
2023-04-25T01:01:31.955Z,29.9890
2023-04-25T01:01:43.389Z,29.9780
2023-04-25T01:01:55.682Z,30.0120
2023-04-25T01:02:06.856Z,29.9840
2023-04-25T01:02:18.061Z,29.9730
2023-04-25T01:02:29.308Z,29.9620
2023-04-25T01:02:40.580Z,29.9730
2023-04-25T01:02:51.860Z,29.9570
2023-04-25T01:03:03.323Z,29.9570
2023-04-25T01:03:14.831Z,29.9790
2023-04-25T01:03:26.105Z,29.9570
2023-04-25T01:03:37.698Z,29.9620
2023-04-25T01:03:49.263Z,29.9680
2023-04-25T01:04:00.861Z,29.9730
2023-04-25T01:04:12.136Z,29.9670
2023-04-25T01:04:23.612Z,29.9680
2023-04-25T01:04:34.801Z,29.9460
2023-04-25T01:04:45.874Z,29.9350
2023-04-25T01:04:57.068Z,29.9400
2023-04-25T01:05:08.275Z,29.9300
2023-04-25T01:05:19.466Z,29.9300
2023-04-25T01:05:30.671Z,29.9190
2023-04-25T01:05:41.873Z,29.8850
2023-04-25T01:05:52.936Z,29.9190
2023-04-25T01:06:03.999Z,29.9070
2023-04-25T01:06:15.044Z,29.8900
2023-04-25T01:06:26.110Z,29.8960
2023-04-25T01:06:37.160Z,29.8800
2023-04-25T01:06:48.237Z,29.8690
2023-04-25T01:06:59.319Z,29.8580
2023-04-25T01:07:10.379Z,29.8740
2023-04-25T01:07:21.502Z,29.8960
2023-04-25T01:07:32.601Z,29.8950
2023-04-25T01:07:43.635Z,29.8850
2023-04-25T01:07:54.686Z,29.9010
2023-04-25T01:08:05.872Z,29.8960
2023-04-25T01:08:16.971Z,29.8900
2023-04-25T01:08:28.022Z,29.9070
2023-04-25T01:08:39.160Z,29.9010
2023-04-25T01:08:50.222Z,29.8900
2023-04-25T01:09:01.250Z,29.8850
2023-04-25T01:09:12.312Z,29.8850
2023-04-25T01:09:23.308Z,29.8740
2023-04-25T01:09:34.511Z,29.9070
2023-04-25T01:09:45.709Z,29.9140
2023-04-25T01:09:56.759Z,29.9140
2023-04-25T01:10:07.815Z,29.8930
2023-04-25T01:10:18.997Z,29.8930
2023-04-25T01:10:30.191Z,29.9040
2023-04-25T01:10:41.259Z,29.8990
2023-04-25T01:10:52.364Z,29.8880
2023-04-25T01:11:03.420Z,29.8700
2023-04-25T01:11:14.450Z,29.8700
2023-04-25T01:11:25.576Z,29.8700
2023-04-25T01:11:36.748Z,29.8880
2023-04-25T01:11:47.858Z,29.8700
2023-04-25T01:11:58.930Z,29.8650
2023-04-25T01:12:09.997Z,29.8430
2023-04-25T01:12:21.049Z,29.8430
2023-04-25T01:12:32.109Z,29.8490
2023-04-25T01:12:43.318Z,29.8490
2023-04-25T01:12:54.531Z,29.8540
2023-04-25T01:13:05.724Z,29.8430
2023-04-25T01:13:16.760Z,29.8490
2023-04-25T01:13:27.810Z,29.8490
2023-04-25T01:13:39.000Z,29.8430
2023-04-25T01:13:50.378Z,29.8540
2023-04-25T01:14:01.762Z,29.8590
2023-04-25T01:14:12.916Z,29.8430
2023-04-25T01:14:24.139Z,29.8380
2023-04-25T01:14:35.306Z,29.8430
2023-04-25T01:14:46.531Z,29.8540
2023-04-25T01:14:57.717Z,29.8590
2023-04-25T01:15:08.917Z,29.8490
2023-04-25T01:15:20.119Z,29.8430
2023-04-25T01:15:31.318Z,29.8380
2023-04-25T01:15:42.519Z,29.8500
2023-04-25T01:15:53.605Z,29.8450
2023-04-25T01:16:04.690Z,29.8280
2023-04-25T01:16:15.853Z,29.8280
2023-04-25T01:16:27.065Z,29.8340
2023-04-25T01:16:38.253Z,29.8280
2023-04-25T01:16:49.453Z,29.8280
2023-04-25T01:17:00.690Z,29.8330
2023-04-25T01:17:11.835Z,29.8230
2023-04-25T01:17:22.853Z,29.8220
2023-04-25T01:17:33.925Z,29.7880
2023-04-25T01:17:45.018Z,29.7820
2023-04-25T01:17:56.369Z,29.7720
2023-04-25T01:18:07.533Z,29.7720
2023-04-25T01:18:18.669Z,29.7820
2023-04-25T01:18:29.894Z,29.7880
2023-04-25T01:18:40.964Z,29.8050
2023-04-25T01:18:52.009Z,29.7880
2023-04-25T01:19:03.178Z,29.7960
2023-04-25T01:19:14.368Z,29.7910
2023-04-25T01:19:25.552Z,29.8020
2023-04-25T01:19:36.768Z,29.8070
2023-04-25T01:19:47.969Z,29.8050
2023-04-25T01:19:59.143Z,29.8110
2023-04-25T01:20:10.350Z,29.8160
2023-04-25T01:20:21.552Z,29.7930
2023-04-25T01:20:32.606Z,29.7610
2023-04-25T01:20:43.658Z,29.7550
2023-04-25T01:20:54.841Z,29.7500
2023-04-25T01:21:06.029Z,29.7340
2023-04-25T01:21:17.268Z,29.7660
2023-04-25T01:21:28.330Z,29.7930
2023-04-25T01:21:39.421Z,29.7930
2023-04-25T01:21:50.549Z,29.7930
2023-04-25T01:22:01.717Z,29.7880
2023-04-25T01:22:12.915Z,29.8050
2023-04-25T01:22:24.160Z,29.8000
2023-04-25T01:22:35.341Z,29.7720
2023-04-25T01:22:46.519Z,29.7820
2023-04-25T01:22:57.728Z,29.7880
2023-04-25T01:23:08.932Z,29.7720
2023-04-25T01:23:20.110Z,29.8000
2023-04-25T01:23:31.150Z,29.7880
2023-04-25T01:23:42.210Z,29.7850
2023-04-25T01:23:53.466Z,29.7740
2023-04-25T01:24:04.597Z,29.7690
2023-04-25T01:24:15.817Z,29.7740
2023-04-25T01:24:27.010Z,29.7510
2023-04-25T01:24:38.209Z,29.7570
2023-04-25T01:24:49.412Z,29.7690
2023-04-25T01:25:00.614Z,29.7460
2023-04-25T01:25:11.815Z,29.7510
2023-04-25T01:25:23.036Z,29.7620
2023-04-25T01:25:34.091Z,29.7390
2023-04-25T01:25:45.149Z,29.7390
2023-04-25T01:25:56.317Z,29.7500
2023-04-25T01:26:07.468Z,29.7550
2023-04-25T01:26:18.667Z,29.7570
2023-04-25T01:26:29.873Z,29.7400
2023-04-25T01:26:41.098Z,29.7570
2023-04-25T01:26:52.326Z,29.7460
2023-04-25T01:27:03.513Z,29.7350
2023-04-25T01:27:14.713Z,29.7510
2023-04-25T01:27:25.887Z,29.7350
2023-04-25T01:27:36.944Z,29.7350
2023-04-25T01:27:47.976Z,29.7300
2023-04-25T01:27:59.165Z,29.7350
2023-04-25T01:28:10.357Z,29.7350
2023-04-25T01:28:21.567Z,29.7350
2023-04-25T01:28:32.769Z,29.7300
2023-04-25T01:28:43.993Z,29.7190
2023-04-25T01:28:55.170Z,29.7400
2023-04-25T01:29:06.366Z,29.7240
2023-04-25T01:29:17.548Z,29.7080
2023-04-25T01:29:28.792Z,29.6870
2023-04-25T01:29:39.960Z,29.6800
2023-04-25T01:29:51.011Z,29.6970
2023-04-25T01:30:02.137Z,29.7080
2023-04-25T01:30:13.292Z,29.7140
2023-04-25T01:30:24.327Z,29.7190
2023-04-25T01:30:35.374Z,29.7240
2023-04-25T01:30:46.439Z,29.6970
2023-04-25T01:30:57.494Z,29.6920
2023-04-25T01:31:08.616Z,29.7030
2023-04-25T01:31:19.654Z,29.7190
2023-04-25T01:31:30.717Z,29.7300
2023-04-25T01:31:41.760Z,29.7080
2023-04-25T01:31:52.890Z,29.7140
2023-04-25T01:32:04.047Z,29.7240
2023-04-25T01:32:15.305Z,29.7240
2023-04-25T01:32:26.473Z,29.7240
2023-04-25T01:32:37.587Z,29.6920
2023-04-25T01:32:48.752Z,29.7080
2023-04-25T01:33:00.044Z,29.7140
2023-04-25T01:33:11.149Z,29.7140
2023-04-25T01:33:22.349Z,29.7080
2023-04-25T01:33:33.575Z,29.7300
2023-04-25T01:33:44.599Z,29.7240
2023-04-25T01:33:55.638Z,29.7190
2023-04-25T01:34:06.828Z,29.7190
2023-04-25T01:34:18.034Z,29.7140
2023-04-25T01:34:29.232Z,29.7190
2023-04-25T01:34:40.436Z,29.7240
2023-04-25T01:34:51.626Z,29.7030
2023-04-25T01:35:02.876Z,29.7080
2023-04-25T01:35:13.970Z,29.7140
2023-04-25T01:35:25.074Z,29.6970
2023-04-25T01:35:36.168Z,29.7030
2023-04-25T01:35:47.312Z,29.6920
2023-04-25T01:35:58.533Z,29.6800
2023-04-25T01:36:09.718Z,29.6580
2023-04-25T01:36:20.920Z,29.6640
2023-04-25T01:36:31.961Z,29.6740
2023-04-25T01:36:43.046Z,29.6870
2023-04-25T01:36:54.241Z,29.6870
2023-04-25T01:37:05.412Z,29.6970
2023-04-25T01:37:16.654Z,29.7030
2023-04-25T01:37:27.695Z,29.7080
2023-04-25T01:37:38.746Z,29.7080
2023-04-25T01:37:49.869Z,29.7030
2023-04-25T01:38:01.078Z,29.7140
2023-04-25T01:38:12.272Z,29.7080
2023-04-25T01:38:23.471Z,29.6920
2023-04-25T01:38:34.550Z,29.7080
2023-04-25T01:38:45.547Z,29.7030
2023-04-25T01:38:56.760Z,29.6920
2023-04-25T01:39:07.953Z,29.6870
2023-04-25T01:39:19.148Z,29.6870
2023-04-25T01:39:30.358Z,29.7030
2023-04-25T01:39:41.397Z,29.7030
2023-04-25T01:39:52.451Z,29.7030
2023-04-25T01:40:03.664Z,29.7140
2023-04-25T01:40:14.851Z,29.7050
2023-04-25T01:40:26.042Z,29.7280
2023-04-25T01:40:37.247Z,29.7390
2023-04-25T01:40:48.337Z,29.7350
2023-04-25T01:40:59.376Z,29.7400
2023-04-25T01:41:10.437Z,29.7350
2023-04-25T01:41:22.617Z,29.7240
2023-04-25T01:41:35.158Z,29.7930
2023-04-25T01:41:46.392Z,29.7610
2023-04-25T01:41:57.725Z,29.7230
2023-04-25T01:42:08.796Z,29.7180
2023-04-25T01:42:19.813Z,29.7050
2023-04-25T01:42:30.839Z,29.7000
2023-04-25T01:42:42.041Z,29.7050
2023-04-25T01:42:53.247Z,29.7180
2023-04-25T01:43:04.434Z,29.7280
2023-04-25T01:43:15.632Z,29.7400
2023-04-25T01:43:26.829Z,29.7080
2023-04-25T01:43:38.057Z,29.6870
2023-04-25T01:43:49.494Z,29.6780
2023-04-25T01:44:00.812Z,29.6840
2023-04-25T01:44:11.981Z,29.6840
2023-04-25T01:44:23.159Z,29.7110
2023-04-25T01:44:34.370Z,29.7180
2023-04-25T01:44:45.569Z,29.7340
2023-04-25T01:44:56.775Z,29.7280
2023-04-25T01:45:07.952Z,29.7340
2023-04-25T01:45:19.161Z,29.7500
2023-04-25T01:45:30.212Z,29.7500
2023-04-25T01:45:41.275Z,29.7450
2023-04-25T01:45:52.654Z,29.7500
2023-04-25T01:46:04.005Z,29.7770
2023-04-25T01:46:15.220Z,29.7660
2023-04-25T01:46:26.328Z,29.7660
2023-04-25T01:46:37.393Z,29.7510
2023-04-25T01:46:48.432Z,29.7510
2023-04-25T01:46:59.683Z,29.7460
2023-04-25T01:47:10.857Z,29.7350
2023-04-25T01:47:22.089Z,29.7190
2023-04-25T01:47:33.352Z,29.7280
2023-04-25T01:47:44.517Z,29.7390
2023-04-25T01:47:55.655Z,29.7450
2023-04-25T01:48:06.904Z,29.7340
2023-04-25T01:48:18.040Z,29.7610
2023-04-25T01:48:29.233Z,29.7500
2023-04-25T01:48:40.266Z,29.7610
2023-04-25T01:48:51.309Z,29.7720
2023-04-25T01:49:02.339Z,29.7770
2023-04-25T01:49:13.409Z,29.7720
2023-04-25T01:49:24.651Z,29.7500
2023-04-25T01:49:35.807Z,29.7550
2023-04-25T01:49:46.843Z,29.7450
2023-04-25T01:49:57.905Z,29.7230
2023-04-25T01:50:09.081Z,29.7190
2023-04-25T01:50:20.280Z,29.7300
2023-04-25T01:50:31.469Z,29.7300
2023-04-25T01:50:42.682Z,29.7350
2023-04-25T01:50:53.789Z,29.7350
2023-04-25T01:51:04.820Z,29.7240
2023-04-25T01:51:15.943Z,29.7400
2023-04-25T01:51:27.164Z,29.7510
2023-04-25T01:51:38.201Z,29.7620
2023-04-25T01:51:49.270Z,29.7610
2023-04-25T01:52:00.346Z,29.7620
2023-04-25T01:52:11.409Z,29.7620
2023-04-25T01:52:22.478Z,29.7690
2023-04-25T01:52:33.546Z,29.7740
2023-04-25T01:52:44.618Z,29.7460
2023-04-25T01:52:55.678Z,29.7460
2023-04-25T01:53:06.729Z,29.7300
2023-04-25T01:53:17.918Z,29.7240
2023-04-25T01:53:29.092Z,29.7550
2023-04-25T01:53:40.289Z,29.7660
2023-04-25T01:53:51.799Z,29.7820
2023-04-25T01:54:03.018Z,29.7880
2023-04-25T01:54:14.060Z,29.7550
2023-04-25T01:54:25.099Z,29.7820
2023-04-25T01:54:36.265Z,29.7820
2023-04-25T01:54:47.486Z,29.7880
2023-04-25T01:54:58.531Z,29.8110
2023-04-25T01:55:09.613Z,29.7880
2023-04-25T01:55:20.642Z,29.8000
2023-04-25T01:55:31.668Z,29.7930
2023-04-25T01:55:42.838Z,29.7820
2023-04-25T01:55:54.037Z,29.7880
2023-04-25T01:56:05.257Z,29.7820
2023-04-25T01:56:16.300Z,29.8000
2023-04-25T01:56:27.325Z,29.7880
2023-04-25T01:56:38.541Z,29.7880
2023-04-25T01:56:49.708Z,29.7930
2023-04-25T01:57:00.950Z,29.7930
2023-04-25T01:57:12.117Z,29.8000
2023-04-25T01:57:23.325Z,29.8000
2023-04-25T01:57:34.519Z,29.8000
2023-04-25T01:57:45.715Z,29.8070
2023-04-25T01:57:56.923Z,29.7910
2023-04-25T01:58:08.119Z,29.7910
2023-04-25T01:58:19.309Z,29.7910
2023-04-25T01:58:30.528Z,29.7690
2023-04-25T01:58:41.726Z,29.7620
2023-04-25T01:58:52.924Z,29.7460
2023-04-25T01:59:04.141Z,29.7510
2023-04-25T01:59:15.331Z,29.7570
2023-04-25T01:59:26.469Z,29.7460
2023-04-25T01:59:37.528Z,29.7400
2023-04-25T01:59:48.592Z,29.7300
2023-04-25T01:59:59.798Z,29.7300
2023-04-25T02:00:10.995Z,29.7400
2023-04-25T02:00:22.204Z,29.7400
2023-04-25T02:00:33.414Z,29.7300
2023-04-25T02:00:44.620Z,29.7350
2023-04-25T02:00:55.797Z,29.7460
2023-04-25T02:01:07.064Z,29.7350
2023-04-25T02:01:18.235Z,29.7460
2023-04-25T02:01:29.314Z,29.7570
2023-04-25T02:01:40.445Z,29.7460
2023-04-25T02:01:51.579Z,29.7460
2023-04-25T02:02:02.697Z,29.7510
2023-04-25T02:02:13.930Z,29.7460
2023-04-25T02:02:25.256Z,29.7510
2023-04-25T02:02:36.461Z,29.7570
2023-04-25T02:02:48.067Z,29.7460
2023-04-25T02:02:59.478Z,29.7460
2023-04-25T02:03:10.710Z,29.7510
2023-04-25T02:03:21.877Z,29.7460
2023-04-25T02:03:33.158Z,29.7510
2023-04-25T02:03:44.623Z,29.7300
2023-04-25T02:03:56.614Z,29.7660
2023-04-25T02:04:08.292Z,29.7930
2023-04-25T02:04:19.745Z,29.7820
2023-04-25T02:04:31.056Z,29.7660
2023-04-25T02:04:42.481Z,29.7500
2023-04-25T02:04:53.914Z,29.7740
2023-04-25T02:05:05.112Z,29.7500
2023-04-25T02:05:16.291Z,29.7350
2023-04-25T02:05:27.489Z,29.7280
2023-04-25T02:05:38.680Z,29.7110
2023-04-25T02:05:49.868Z,29.7110
2023-04-25T02:06:01.089Z,29.7450
2023-04-25T02:06:12.133Z,29.7450
2023-04-25T02:06:23.162Z,29.7280
2023-04-25T02:06:34.369Z,29.7460
2023-04-25T02:06:45.552Z,29.7350
2023-04-25T02:06:56.574Z,29.7350
2023-04-25T02:07:07.749Z,29.7030
2023-04-25T02:07:18.837Z,29.6800
2023-04-25T02:07:30.055Z,29.6870
2023-04-25T02:07:41.238Z,29.6800
2023-04-25T02:07:52.428Z,29.6800
2023-04-25T02:08:03.651Z,29.6800
2023-04-25T02:08:14.840Z,29.7030
2023-04-25T02:08:26.061Z,29.6920
2023-04-25T02:08:37.231Z,29.6920
2023-04-25T02:08:48.469Z,29.6970
2023-04-25T02:08:59.639Z,29.7080
2023-04-25T02:09:10.712Z,29.7080
2023-04-25T02:09:21.765Z,29.7140
2023-04-25T02:09:32.912Z,29.7030
2023-04-25T02:09:44.118Z,29.7080
2023-04-25T02:09:55.183Z,29.7080
2023-04-25T02:10:06.271Z,29.6920
2023-04-25T02:10:17.322Z,29.6580
2023-04-25T02:10:28.379Z,29.6360
2023-04-25T02:10:39.471Z,29.6260
2023-04-25T02:10:50.515Z,29.6360
2023-04-25T02:11:01.565Z,29.6360
2023-04-25T02:11:12.771Z,29.6150
2023-04-25T02:11:23.954Z,29.6090
2023-04-25T02:11:35.155Z,29.6040
2023-04-25T02:11:46.363Z,29.6200
2023-04-25T02:11:57.558Z,29.6350
2023-04-25T02:12:08.787Z,29.6570
2023-04-25T02:12:19.964Z,29.6670
2023-04-25T02:12:31.001Z,29.6620
2023-04-25T02:12:42.093Z,29.6670
2023-04-25T02:12:53.238Z,29.6670
2023-04-25T02:13:04.454Z,29.6620
2023-04-25T02:13:15.666Z,29.6570
2023-04-25T02:13:26.865Z,29.6620
2023-04-25T02:13:37.922Z,29.6620
2023-04-25T02:13:49.271Z,29.6530
2023-04-25T02:14:00.442Z,29.6580
2023-04-25T02:14:11.629Z,29.6310
2023-04-25T02:14:22.684Z,29.6260
2023-04-25T02:14:33.729Z,29.6090
2023-04-25T02:14:44.923Z,29.5970
2023-04-25T02:14:56.120Z,29.6200
2023-04-25T02:15:07.338Z,29.6200